Terminal Aerodrome Forecast
Issued by NWS St Louis, MO

Home | Current Version | Previous Version | Graphics & Text | Print | Product List | Glossary Off
Versions: 1 2 3 4 5 6 7 8 9 10 11 12 13 14 15 16 17 18 19 20 21 22 23 24 25 26 27 28 29

000
FTUS43 KLSX 250520
TAFSTL
TAF
KSTL 250520Z 2506/2612 32008KT P6SM VCTS BKN060CB
      TEMPO 2506/2508 5SM -TSRA BKN025CB
     FM251100 36005KT P6SM SCT025 BKN050
     FM251500 01005KT P6SM BKN040
     FM260100 03006KT P6SM SCT250=

USA.gov is the U.S. government's official web portal to all federal, state and local government web resources and services.